Latest Weather Observations for Redcliffe

IDQ60801

Issued at 11:35 am EST Wednesday 22 October 2014 (issued every 30 minutes, with the page automatically refreshed every 10 minutes)

About weather observations | Map of weather stations | Latest weather observations for QLD | Other Formats
Station Details ID: 040958 Name: REDCLIFFE Lat: -27.22 Lon: 153.09 Height: 12.6 m
Data from the previous 72 hours. | See also: Recent months at Redcliffe
Date/Time
EST
Temp
°C
App
Temp
°C
Dew
Point
Rel
Hum
%
Delta-T
°C
Wind Press
QNH
hPa
Press
MSL
hPa
Rain
since 9 am
mm
Dir
 
Spd
km/h
Gust
km/h
Spd
kts
Gust
kts
22/11:30am 21.2 16.5 10.7 51 5.7 ESE 26 28 14 15 1024.6 1024.5 0.0
22/11:00am 21.9 16.7 12.7 56 5.2 SE 32 35 17 19 1024.9 1024.8 0.0
22/10:30am 21.4 16.4 11.1 52 5.7 SE 28 32 15 17 1025.1 1025.0 0.0
22/10:00am 20.9 15.6 11.3 54 5.3 SE 30 37 16 20 1025.4 1025.3 0.0
22/09:30am 20.6 15.6 12.1 58 4.8 SSE 30 37 16 20 1025.6 1025.5 0.0
22/09:00am 21.2 17.5 12.6 58 4.8 SSE 24 30 13 16 1025.6 1025.5 0.0
22/08:30am 20.4 17.3 12.1 59 4.6 S 20 28 11 15 1025.6 1025.5 0.0
22/08:00am 19.6 16.1 12.1 62 4.2 S 22 30 12 16 1025.7 1025.6 0.0
22/07:30am 19.8 15.4 11.6 59 4.5 S 26 32 14 17 1025.4 1025.3 0.0
22/07:00am 19.3 16.3 12.1 63 4.0 SSW 19 28 10 15 1025.2 1025.1 0.0
22/06:30am 18.4 15.4 12.4 68 3.3 S 20 32 11 17 1025.1 1025.0 0.0
22/06:00am 17.8 14.0 12.5 71 2.9 S 24 30 13 16 1024.8 1024.7 0.0
22/05:30am 17.4 14.8 12.1 71 2.9 SSW 17 22 9 12 1024.5 1024.4 0.0
22/05:00am 17.5 14.5 12.0 70 3.0 S 19 32 10 17 1024.5 1024.4 0.0
22/04:30am 17.4 13.9 12.3 72 2.8 S 22 28 12 15 1024.3 1024.2 0.0
22/04:00am 17.4 13.1 11.9 70 3.0 S 26 30 14 16 1024.3 1024.2 0.0
22/03:30am 17.6 13.7 12.1 70 3.0 S 24 32 13 17 1024.4 1024.3 0.0
22/03:00am 17.7 13.5 12.4 71 2.9 S 26 32 14 17 1024.6 1024.5 0.0
22/02:30am 17.1 14.2 12.8 76 2.4 S 20 30 11 16 1024.9 1024.8 0.0
22/02:00am 17.5 12.1 12.2 71 2.9 S 32 43 17 23 1025.0 1024.9 0.0
22/01:30am 18.1 12.6 12.5 70 3.1 S 33 37 18 20 1025.3 1025.2 0.0
22/01:00am 18.1 13.0 13.0 72 2.8 S 32 35 17 19 1025.6 1025.5 0.0
22/12:30am 18.3 12.2 13.0 71 3.0 S 37 46 20 25 1026.0 1025.9 0.0
22/12:00am 18.0 12.9 13.1 73 2.7 S 32 37 17 20 1026.5 1026.4 0.0
 
Date/Time
EST
Temp
°C
App
Temp
°C
Dew
Point
Rel
Hum
%
Delta-T
°C
Wind Press
QNH
hPa
Press
MSL
hPa
Rain
since 9 am
mm
Dir
 
Spd
km/h
Gust
km/h
Spd
kts
Gust
kts
21/11:30pm 18.0 13.0 13.5 75 2.5 S 32 39 17 21 1026.9 1026.8 0.0
21/11:00pm 18.6 12.4 12.8 69 3.2 S 37 41 20 22 1027.2 1027.1 0.0
21/10:30pm 18.7 12.5 12.7 68 3.4 SSE 37 46 20 25 1027.3 1027.2 0.0
21/10:00pm 19.0 13.4 13.2 69 3.3 SSE 35 43 19 23 1027.2 1027.1 0.0
21/09:30pm 19.3 11.9 13.2 68 3.4 SSE 44 54 24 29 1027.3 1027.2 0.0
21/09:00pm 19.8 12.7 13.3 66 3.7 SSE 43 50 23 27 1027.1 1027.0 0.0
21/08:30pm 20.0 12.6 13.2 65 3.9 SSE 44 52 24 28 1026.8 1026.7 0.0
21/08:00pm 20.0 12.3 13.2 65 3.8 SSE 46 56 25 30 1026.7 1026.6 0.0
21/07:30pm 20.3 13.8 13.0 63 4.1 SSE 39 48 21 26 1026.5 1026.4 0.0
21/07:00pm 20.4 13.0 12.9 62 4.2 SSE 44 54 24 29 1026.3 1026.2 0.0
21/06:30pm 20.4 13.1 13.4 64 4.0 SSE 44 56 24 30 1026.0 1025.9 0.0
21/06:00pm 20.5 12.9 13.5 64 4.0 SSE 46 56 25 30 1025.7 1025.6 0.0
21/05:30pm 20.9 12.9 13.4 62 4.3 SSE 48 54 26 29 1025.4 1025.3 0.0
21/05:00pm 21.2 13.5 13.4 61 4.5 SE 46 54 25 29 1025.1 1025.0 0.0
21/04:30pm 21.3 13.1 14.2 64 4.1 SSE 50 57 27 31 1024.8 1024.7 0.0
21/04:00pm 21.4 13.6 14.1 63 4.2 SSE 48 57 26 31 1024.5 1024.4 0.0
21/03:30pm 21.6 13.9 14.3 63 4.3 SSE 48 56 26 30 1024.3 1024.2 0.0
21/03:00pm 21.9 14.1 14.0 61 4.6 SSE 48 57 26 31 1024.2 1024.1 0.0
21/02:30pm 22.4 14.5 14.8 62 4.5 SSE 50 57 27 31 1024.2 1024.1 0.0
21/02:00pm 22.9 15.2 13.4 55 5.5 SSE 46 56 25 30 1024.2 1024.1 0.0
21/01:30pm 24.1 16.6 13.9 53 6.0 SE 46 52 25 28 1024.7 1024.6 0.0
21/01:00pm 23.4 16.4 13.8 54 5.6 SE 43 50 23 27 1024.9 1024.8 0.0
21/12:30pm 23.4 16.3 13.3 53 5.8 SE 43 50 23 27 1025.4 1025.3 0.0
21/12:00pm 22.8 15.2 13.6 56 5.3 SE 46 54 25 29 1025.7 1025.6 0.0
21/11:30am 23.2 16.4 14.2 57 5.3 SSE 43 50 23 27 1026.2 1026.1 0.0
21/11:00am 22.8 15.6 13.8 57 5.2 SSE 44 52 24 28 1026.4 1026.3 0.0
21/10:30am 22.8 15.8 13.6 56 5.3 SSE 43 52 23 28 1026.6 1026.5 0.0
21/10:00am 22.1 14.7 12.9 56 5.2 SSE 44 52 24 28 1026.6 1026.5 0.0
21/09:30am 21.6 14.1 13.8 61 4.5 SSE 46 57 25 31 1026.9 1026.8 0.0
21/09:00am 21.6 14.9 13.5 60 4.6 SSE 41 52 22 28 1026.9 1026.8 0.4
21/08:30am 20.6 14.9 14.3 67 3.7 SSE 37 48 20 26 1027.1 1027.0 0.4
21/08:00am 19.6 16.2 15.7 78 2.3 SSE 28 39 15 21 1027.0 1026.9 0.4
21/07:30am 18.6 14.5 16.4 87 1.3 SSE 33 41 18 22 1026.9 1026.8 0.2
21/07:20am 18.7 15.0 16.1 85 1.5 ESE 30 32 16 17 1026.8 1026.7 0.2
21/07:00am 18.9 12.0 16.5 86 1.4 SSE 48 56 26 30 1026.3 1026.2 0.0
21/06:30am 18.2 12.6 15.5 84 1.6 S 39 52 21 28 1025.9 1025.8 0.0
21/06:00am 18.8 13.8 15.1 79 2.2 S 35 46 19 25 1025.8 1025.7 0.0
21/05:30am 20.2 14.6 15.4 74 2.8 SSE 39 48 21 26 1025.4 1025.3 0.0
21/05:00am 20.2 16.6 15.2 73 2.9 SSE 28 33 15 18 1025.2 1025.1 0.0
21/04:30am 20.1 17.1 15.9 77 2.5 SSE 26 32 14 17 1024.8 1024.7 0.0
21/04:00am 19.9 17.8 16.2 79 2.2 SSE 22 26 12 14 1024.7 1024.6 0.0
21/03:30am 19.4 17.3 15.3 77 2.4 S 20 24 11 13 1024.7 1024.6 0.0
21/03:00am 19.8 19.2 15.7 77 2.4 S 13 15 7 8 1024.9 1024.8 0.0
21/02:30am 19.5 18.0 15.4 77 2.4 S 17 20 9 11 1025.0 1024.9 0.0
21/02:00am 19.1 17.1 15.0 77 2.4 S 19 24 10 13 1025.1 1025.0 0.0
21/01:30am 19.1 16.7 14.4 74 2.7 S 20 24 11 13 1025.3 1025.2 0.0
21/01:00am 19.2 16.7 14.2 73 2.9 S 20 24 11 13 1025.8 1025.7 0.0
21/12:30am 19.5 17.4 13.7 69 3.3 S 17 19 9 10 1026.0 1025.9 0.0
21/12:00am 20.7 17.6 14.4 67 3.7 SE 24 28 13 15 1026.2 1026.1 0.0
 
Date/Time
EST
Temp
°C
App
Temp
°C
Dew
Point
Rel
Hum
%
Delta-T
°C
Wind Press
QNH
hPa
Press
MSL
hPa
Rain
since 9 am
mm
Dir
 
Spd
km/h
Gust
km/h
Spd
kts
Gust
kts
20/11:30pm 20.5 16.5 14.2 67 3.7 SSE 28 33 15 18 1026.5 1026.4 0.0
20/11:00pm 20.6 16.2 14.0 66 3.8 SSE 30 35 16 19 1026.6 1026.5 0.0
20/10:30pm 20.9 16.0 13.6 63 4.2 SSE 32 37 17 20 1026.7 1026.6 0.0
20/10:00pm 21.0 16.8 13.4 62 4.3 SSE 28 32 15 17 1026.7 1026.6 0.0
20/09:30pm 21.0 17.0 12.9 60 4.6 SE 26 30 14 16 1026.7 1026.6 0.0
20/09:00pm 20.8 17.0 12.5 59 4.7 SE 24 28 13 15 1026.5 1026.4 0.0
20/08:30pm 20.9 17.9 12.6 59 4.7 SE 20 26 11 14 1026.2 1026.1 0.0
20/08:00pm 20.7 18.0 12.9 61 4.4 ESE 19 26 10 14 1025.8 1025.7 0.0
20/07:30pm 20.7 18.1 12.1 58 4.8 E 17 19 9 10 1025.3 1025.2 0.0
20/07:00pm 20.8 17.8 12.0 57 4.9 E 19 24 10 13 1024.8 1024.7 0.0
20/06:30pm 21.0 18.1 12.4 58 4.8 E 19 22 10 12 1024.3 1024.2 0.0
20/06:00pm 21.1 18.8 13.0 60 4.6 E 17 20 9 11 1023.7 1023.6 0.0
20/05:30pm 21.4 18.6 12.5 57 5.0 NE 19 22 10 12 1023.3 1023.2 0.0
20/05:00pm 21.7 18.0 11.4 52 5.7 NE 22 26 12 14 1022.8 1022.7 0.0
20/04:30pm 22.3 18.0 10.8 48 6.3 NE 24 28 13 15 1022.5 1022.4 0.0
20/04:00pm 22.5 18.2 10.6 47 6.5 NNE 24 28 13 15 1022.2 1022.1 0.0
20/03:30pm 23.0 18.5 10.1 44 7.1 NNE 24 28 13 15 1022.1 1022.0 0.0
20/03:00pm 22.9 18.8 11.3 48 6.5 NE 24 26 13 14 1022.1 1022.0 0.0
20/02:30pm 22.7 19.3 12.6 53 5.8 NE 22 28 12 15 1022.0 1021.9 0.0
20/02:00pm 22.8 19.6 11.8 50 6.2 NE 20 26 11 14 1022.3 1022.2 0.0
20/01:30pm 23.1 20.1 11.8 49 6.4 NE 19 22 10 12 1022.8 1022.7 0.0
20/01:00pm 23.0 19.7 10.8 46 6.7 ENE 19 20 10 11 1023.0 1022.9 0.0
20/12:30pm 23.0 20.1 11.1 47 6.6 ENE 17 20 9 11 1023.4 1023.3 0.0
20/12:00pm 22.5 20.2 10.6 47 6.5 ENE 13 17 7 9 1023.9 1023.8 0.0
20/11:30am 22.8 21.0 10.9 47 6.6 NE 11 15 6 8 1024.4 1024.3 0.0
20/11:00am 22.9 21.4 10.7 46 6.7 ENE 9 11 5 6 1024.9 1024.8 0.0
20/10:30am 23.4 22.5 11.5 47 6.7 ENE 7 7 4 4 1025.3 1025.2 0.0
20/10:00am 22.6 21.3 10.1 45 6.8 NNE 7 11 4 6 1025.5 1025.4 0.0
20/09:30am 22.3 21.7 13.6 58 5.0 ENE 9 13 5 7 1025.8 1025.7 0.0
20/09:00am 22.4 21.7 12.1 52 5.8 ESE 7 9 4 5 1025.9 1025.8 0.0
20/08:30am 21.8 21.0 11.8 53 5.6 SE 7 9 4 5 1025.9 1025.8 0.0
20/08:00am 20.8 19.1 11.2 54 5.3 S 11 13 6 7 1025.9 1025.8 0.0
20/07:30am 20.4 18.8 11.6 57 4.9 S 11 13 6 7 1025.6 1025.5 0.0
20/07:00am 18.7 17.2 12.0 65 3.7 S 11 15 6 8 1025.6 1025.5 0.0
20/06:30am 17.3 15.8 11.8 70 3.0 SSW 11 13 6 7 1025.2 1025.1 0.0
20/06:00am 15.9 14.3 11.5 75 2.4 SW 11 13 6 7 1025.0 1024.9 0.0
20/05:30am 15.2 13.1 11.2 77 2.1 WSW 13 15 7 8 1024.8 1024.7 0.0
20/05:00am 15.2 13.1 11.2 77 2.1 SW 13 15 7 8 1024.5 1024.4 0.0
20/04:30am 15.4 13.4 11.4 77 2.1 WSW 13 15 7 8 1024.5 1024.4 0.0
20/04:00am 15.5 13.9 11.7 78 2.0 WSW 11 13 6 7 1024.4 1024.3 0.0
20/03:30am 15.4 14.2 11.6 78 2.0 W 9 11 5 6 1024.2 1024.1 0.0
20/03:00am 15.9 14.7 11.7 76 2.3 ESE 9 15 5 8 1024.3 1024.2 0.0
20/02:30am 16.4 14.6 12.0 75 2.4 E 13 17 7 9 1024.4 1024.3 0.0
20/02:00am 16.9 14.5 11.4 70 3.0 E 15 19 8 10 1024.6 1024.5 0.0
20/01:30am 19.1 17.2 11.7 62 4.1 E 13 17 7 9 1024.8 1024.7 0.0
20/01:00am 18.5 16.8 11.3 63 3.9 NE 11 15 6 8 1025.3 1025.2 0.0
20/12:30am 18.9 16.9 11.5 62 4.1 E 13 17 7 9 1025.6 1025.5 0.0
20/12:00am 19.1 17.0 11.2 60 4.3 E 13 17 7 9 1025.8 1025.7 0.0
 
Date/Time
EST
Temp
°C
App
Temp
°C
Dew
Point
Rel
Hum
%
Delta-T
°C
Wind Press
QNH
hPa
Press
MSL
hPa
Rain
since 9 am
mm
Dir
 
Spd
km/h
Gust
km/h
Spd
kts
Gust
kts
19/11:30pm 19.7 17.2 11.2 58 4.7 E 15 19 8 10 1026.1 1026.0 0.0
19/11:00pm 19.7 16.9 11.5 59 4.5 E 17 24 9 13 1026.3 1026.2 0.0
19/10:30pm 19.9 16.7 11.1 57 4.8 E 19 26 10 14 1026.5 1026.4 0.0
19/10:00pm 20.0 16.8 11.2 57 4.8 E 19 24 10 13 1026.4 1026.3 0.0
19/09:30pm 20.1 16.3 11.1 56 4.9 E 22 28 12 15 1026.3 1026.2 0.0
19/09:00pm 20.0 15.8 11.0 56 4.9 E 24 28 13 15 1026.3 1026.2 0.0
19/08:30pm 20.1 16.3 11.1 56 4.9 E 22 28 12 15 1026.3 1026.2 0.0
19/08:00pm 20.1 15.8 10.8 55 5.0 E 24 30 13 16 1026.1 1026.0 0.0
19/07:30pm 20.4 16.1 10.8 54 5.2 E 24 28 13 15 1025.8 1025.7 0.0
19/07:00pm 20.3 16.1 11.0 55 5.1 ESE 24 28 13 15 1025.7 1025.6 0.0
19/06:30pm 20.5 16.2 10.9 54 5.3 ESE 24 30 13 16 1025.2 1025.1 0.0
19/06:00pm 20.7 16.0 10.5 52 5.5 ESE 26 30 14 16 1024.7 1024.6 0.0
19/05:30pm 21.0 16.5 11.3 54 5.4 ESE 26 30 14 16 1024.4 1024.3 0.0
19/05:00pm 21.3 16.3 11.1 52 5.6 E 28 32 15 17 1024.1 1024.0 0.0
19/04:30pm 21.7 16.9 11.7 53 5.6 ESE 28 33 15 18 1023.7 1023.6 0.0
19/04:00pm 21.9 17.2 11.9 53 5.6 E 28 35 15 19 1023.5 1023.4 0.0
19/03:30pm 22.5 18.1 11.6 50 6.1 ESE 26 32 14 17 1023.5 1023.4 0.0
19/03:00pm 22.4 18.1 10.9 48 6.3 ESE 24 28 13 15 1023.6 1023.5 0.0
19/02:30pm 22.8 19.5 12.7 53 5.8 E 22 28 12 15 1024.0 1023.9 0.0
19/02:00pm 23.4 19.6 12.4 50 6.2 ESE 24 28 13 15 1024.3 1024.2 0.0
19/01:30pm 23.1 20.0 11.5 48 6.5 ESE 19 26 10 14 1024.6 1024.5 0.0
19/01:00pm 23.2 20.3 12.2 50 6.2 ESE 19 24 10 13 1025.0 1024.9 0.0
19/12:30pm 23.1 20.1 11.8 49 6.4 ESE 19 24 10 13 1025.5 1025.4 0.0
19/12:00pm 23.0 20.1 11.1 47 6.6 ESE 17 20 9 11 1025.9 1025.8 0.0

Other Formats:

Comma delimited format used in spreadsheet applications
http://www.bom.gov.au/fwo/IDQ60801/IDQ60801.95591.axf

JavaScript Object Notation format (JSON) in row-major order
http://www.bom.gov.au/fwo/IDQ60801/IDQ60801.95591.json